Time;durP1;ratioP1;P1;durP2;ratioP2;P2;SDS_P1;SDS_P2;PMS_P1;PMS_P2;Temp;Humidity;BMP_temperature;BMP_pressure;BME280_temperature;BME280_humidity;BME280_pressure;Samples;Min_cycle;Max_cycle;Signal;HPM_P1;HPM_P2
2021/10/19 00:00:13;;;;;;;3.20;2.90;;;;;;;;;;5014636;28;20572;-46
2021/10/19 00:02:40;;;;;;;3.28;2.97;;;;;;;;;;5027215;28;20214;-46
2021/10/19 00:05:07;;;;;;;3.15;2.95;;;;;;;;;;5018101;28;20188;-47
2021/10/19 00:07:33;;;;;;;3.00;2.80;;;;;;;;;;5014770;28;20172;-46
2021/10/19 00:09:59;;;;;;;3.75;2.80;;;;;;;;;;5014924;28;20182;-46
2021/10/19 00:12:25;;;;;;;2.85;2.65;;;;;;;;;;5032873;28;20186;-46
2021/10/19 00:14:51;;;;;;;3.30;3.00;;;;;;;;;;5029000;28;20198;-47
2021/10/19 00:17:17;;;;;;;3.10;2.90;;;;;;;;;;5034471;28;20549;-46
2021/10/19 00:19:43;;;;;;;2.88;2.67;;;;;;;;;;5017743;28;20264;-47
2021/10/19 00:22:10;;;;;;;3.08;2.78;;;;;;;;;;5030010;28;20221;-47
2021/10/19 00:24:36;;;;;;;2.80;2.60;;;;;;;;;;5024837;28;20171;-46
2021/10/19 00:27:04;;;;;;;3.47;2.78;;;;;;;;;;5033102;28;20578;-46
2021/10/19 00:29:30;;;;;;;2.80;2.60;;;;;;;;;;5021856;28;20180;-47
2021/10/19 00:31:56;;;;;;;3.03;2.72;;;;;;;;;;5020233;28;20187;-47
2021/10/19 00:34:22;;;;;;;2.83;2.60;;;;;;;;;;5015939;28;20192;-46
2021/10/19 00:36:48;;;;;;;2.75;2.55;;;;;;;;;;5016310;28;20463;-47
2021/10/19 00:39:15;;;;;;;3.38;3.08;;;;;;;;;;5033331;28;20192;-46
2021/10/19 00:41:41;;;;;;;3.30;3.00;;;;;;;;;;5021760;28;20196;-47
2021/10/19 00:44:07;;;;;;;3.10;2.80;;;;;;;;;;5013012;28;20181;-46
2021/10/19 00:46:33;;;;;;;2.80;2.60;;;;;;;;;;5021809;28;20463;-46
2021/10/19 00:48:59;;;;;;;3.05;2.75;;;;;;;;;;5033424;28;20179;-47
2021/10/19 00:51:25;;;;;;;3.10;2.90;;;;;;;;;;5026274;28;20192;-46
2021/10/19 00:53:51;;;;;;;2.83;2.63;;;;;;;;;;5016757;28;20246;-46
2021/10/19 00:56:17;;;;;;;2.78;2.58;;;;;;;;;;5032901;28;20264;-47
2021/10/19 00:58:44;;;;;;;3.10;2.80;;;;;;;;;;5037160;28;20175;-47
2021/10/19 01:01:10;;;;;;;3.22;2.92;;;;;;;;;;5025282;28;20303;-46
2021/10/19 01:03:36;;;;;;;3.33;2.80;;;;;;;;;;5030225;28;20572;-46
2021/10/19 01:06:05;;;;;;;2.75;2.50;;;;;;;;;;5036485;28;20547;-46
2021/10/19 01:08:31;;;;;;;2.88;2.40;;;;;;;;;;5019259;28;20180;-46
2021/10/19 01:10:58;;;;;;;2.63;2.42;;;;;;;;;;5017480;28;20179;-47
2021/10/19 01:13:24;;;;;;;3.90;2.67;;;;;;;;;;5023743;28;20230;-46
2021/10/19 01:15:50;;;;;;;3.83;2.72;;;;;;;;;;5019049;28;20176;-47
2021/10/19 01:18:17;;;;;;;2.65;2.45;;;;;;;;;;5026025;28;20176;-46
2021/10/19 01:20:43;;;;;;;2.92;2.72;;;;;;;;;;5026797;28;20464;-46
2021/10/19 01:23:13;;;;;;;2.63;2.40;;;;;;;;;;5034668;28;20241;-46
2021/10/19 01:25:39;;;;;;;2.53;2.33;;;;;;;;;;5018163;28;20445;-47
2021/10/19 01:28:07;;;;;;;2.85;2.63;;;;;;;;;;5030607;28;20310;-46
2021/10/19 01:30:39;;;;;;;2.75;2.55;;;;;;;;;;5036380;28;20194;-46
2021/10/19 01:33:05;;;;;;;2.80;2.60;;;;;;;;;;5021089;28;20566;-46
2021/10/19 01:35:34;;;;;;;2.58;2.38;;;;;;;;;;5033682;28;20586;-47
2021/10/19 01:38:01;;;;;;;2.67;2.47;;;;;;;;;;5029182;28;20188;-46
2021/10/19 01:40:27;;;;;;;2.70;2.50;;;;;;;;;;5025583;28;20254;-46
2021/10/19 01:42:53;;;;;;;2.50;2.30;;;;;;;;;;5036455;28;20578;-46
2021/10/19 01:45:19;;;;;;;2.78;2.58;;;;;;;;;;5024473;28;20173;-47
2021/10/19 01:47:45;;;;;;;2.60;2.40;;;;;;;;;;5029528;28;20180;-46
2021/10/19 01:50:12;;;;;;;2.63;2.42;;;;;;;;;;5022078;28;20185;-46
2021/10/19 01:52:39;;;;;;;2.40;2.20;;;;;;;;;;5028945;28;20212;-46
2021/10/19 01:55:05;;;;;;;2.33;2.13;;;;;;;;;;5028300;28;20197;-46
2021/10/19 01:57:32;;;;;;;2.60;2.30;;;;;;;;;;5018329;28;20179;-46
2021/10/19 01:59:58;;;;;;;2.20;2.00;;;;;;;;;;5022817;28;20251;-46
2021/10/19 02:02:24;;;;;;;2.60;2.40;;;;;;;;;;5025383;28;20223;-46
2021/10/19 02:04:50;;;;;;;2.25;2.10;;;;;;;;;;5033756;28;20697;-46
2021/10/19 02:07:16;;;;;;;2.70;2.50;;;;;;;;;;5023920;28;20181;-46
2021/10/19 02:09:42;;;;;;;2.60;2.40;;;;;;;;;;5017336;28;20231;-47
2021/10/19 02:12:08;;;;;;;2.45;2.25;;;;;;;;;;5021514;28;20184;-46
2021/10/19 02:14:34;;;;;;;2.58;2.38;;;;;;;;;;5035711;28;20214;-46
2021/10/19 02:17:00;;;;;;;2.50;2.30;;;;;;;;;;5022336;28;20196;-46
2021/10/19 02:19:27;;;;;;;2.63;2.42;;;;;;;;;;5030095;28;20187;-47
2021/10/19 02:21:53;;;;;;;2.35;2.15;;;;;;;;;;5032067;28;20223;-46
2021/10/19 02:24:20;;;;;;;2.10;1.95;;;;;;;;;;5019372;28;20192;-47
2021/10/19 02:26:46;;;;;;;2.42;2.22;;;;;;;;;;5035785;28;20194;-47
2021/10/19 02:29:13;;;;;;;2.30;2.10;;;;;;;;;;5035594;28;20207;-47
2021/10/19 02:31:39;;;;;;;2.67;2.47;;;;;;;;;;5016449;28;20260;-47
2021/10/19 02:34:05;;;;;;;2.40;2.20;;;;;;;;;;5019357;28;20885;-47
2021/10/19 02:36:33;;;;;;;2.55;2.35;;;;;;;;;;5033706;28;20223;-46
2021/10/19 02:38:59;;;;;;;2.38;2.17;;;;;;;;;;5028569;28;20443;-47
2021/10/19 02:41:26;;;;;;;2.13;2.03;;;;;;;;;;5034037;28;20265;-46
2021/10/19 02:43:52;;;;;;;2.30;2.10;;;;;;;;;;5033018;28;20192;-47
2021/10/19 02:46:18;;;;;;;2.25;2.15;;;;;;;;;;5034000;28;20314;-46
2021/10/19 02:48:44;;;;;;;2.50;2.30;;;;;;;;;;5033995;28;20187;-46
2021/10/19 02:51:10;;;;;;;2.65;2.45;;;;;;;;;;5027129;28;20263;-46
2021/10/19 02:53:36;;;;;;;2.63;2.42;;;;;;;;;;5020079;28;20267;-47
2021/10/19 02:56:02;;;;;;;2.20;2.00;;;;;;;;;;5029854;28;20188;-46
2021/10/19 02:58:28;;;;;;;2.28;2.08;;;;;;;;;;5035275;28;20184;-46
2021/10/19 03:00:54;;;;;;;2.30;2.10;;;;;;;;;;5024554;28;20203;-47
2021/10/19 03:03:20;;;;;;;2.50;2.30;;;;;;;;;;5015296;28;20184;-47
2021/10/19 03:05:46;;;;;;;1.80;1.70;;;;;;;;;;5026596;28;20237;-46
2021/10/19 03:08:12;;;;;;;2.50;2.30;;;;;;;;;;5028948;28;20195;-48
2021/10/19 03:10:38;;;;;;;2.40;2.20;;;;;;;;;;5029628;28;20188;-47
2021/10/19 03:13:04;;;;;;;2.35;2.15;;;;;;;;;;5028610;28;20195;-46
2021/10/19 03:15:30;;;;;;;1.92;1.83;;;;;;;;;;5029554;28;20187;-47
2021/10/19 03:17:56;;;;;;;2.30;2.10;;;;;;;;;;5035186;28;20579;-46
2021/10/19 03:20:22;;;;;;;2.50;2.30;;;;;;;;;;5030218;28;20187;-46
2021/10/19 03:22:48;;;;;;;2.40;2.20;;;;;;;;;;5030415;28;20227;-46
2021/10/19 03:25:14;;;;;;;2.22;2.03;;;;;;;;;;5021940;28;20479;-46
2021/10/19 03:27:40;;;;;;;2.40;2.20;;;;;;;;;;5026031;28;20180;-47
2021/10/19 03:30:06;;;;;;;2.30;2.10;;;;;;;;;;5029088;28;20307;-46
2021/10/19 03:32:32;;;;;;;2.30;2.10;;;;;;;;;;5016088;28;20176;-46
2021/10/19 03:34:58;;;;;;;2.40;2.20;;;;;;;;;;5020315;28;20260;-46
2021/10/19 03:37:25;;;;;;;2.17;1.98;;;;;;;;;;5023044;28;20180;-46
2021/10/19 03:39:51;;;;;;;2.50;2.30;;;;;;;;;;5027876;28;20575;-46
2021/10/19 03:42:17;;;;;;;2.63;2.20;;;;;;;;;;5030339;28;20206;-46
2021/10/19 03:44:44;;;;;;;2.40;2.20;;;;;;;;;;5029533;28;20195;-46
2021/10/19 03:47:10;;;;;;;2.47;2.20;;;;;;;;;;5033723;28;20622;-46
2021/10/19 03:49:36;;;;;;;2.47;2.28;;;;;;;;;;5032999;28;20184;-46
2021/10/19 03:52:02;;;;;;;2.63;2.42;;;;;;;;;;5021943;28;20613;-46
2021/10/19 03:54:28;;;;;;;2.55;2.35;;;;;;;;;;5027252;28;20195;-47
2021/10/19 03:56:54;;;;;;;2.28;2.08;;;;;;;;;;5014005;28;20220;-47
2021/10/19 03:59:20;;;;;;;2.50;2.30;;;;;;;;;;5027765;28;20267;-46
2021/10/19 04:01:46;;;;;;;2.42;2.22;;;;;;;;;;5016741;28;20311;-47
2021/10/19 04:04:12;;;;;;;4.88;2.28;;;;;;;;;;5014230;28;20173;-47
2021/10/19 04:06:38;;;;;;;4.05;2.40;;;;;;;;;;5028668;28;20184;-46
2021/10/19 04:09:04;;;;;;;2.90;2.22;;;;;;;;;;5024136;28;20207;-46
2021/10/19 04:11:30;;;;;;;3.53;2.25;;;;;;;;;;5027926;28;20180;-46
2021/10/19 04:13:56;;;;;;;4.22;2.53;;;;;;;;;;5015757;28;20588;-46
2021/10/19 04:16:22;;;;;;;4.40;2.30;;;;;;;;;;5014244;28;20203;-46
2021/10/19 04:18:48;;;;;;;7.70;3.47;;;;;;;;;;5015787;28;20188;-46
2021/10/19 04:21:14;;;;;;;12.60;3.72;;;;;;;;;;5015328;28;20211;-47
2021/10/19 04:23:40;;;;;;;8.48;3.22;;;;;;;;;;5014152;28;20164;-48
2021/10/19 04:26:06;;;;;;;6.63;2.90;;;;;;;;;;5029316;28;20456;-46
2021/10/19 04:28:33;;;;;;;6.15;3.67;;;;;;;;;;5036711;28;20183;-46
2021/10/19 04:30:58;;;;;;;9.23;3.10;;;;;;;;;;5036479;28;20171;-46
2021/10/19 04:33:24;;;;;;;9.35;3.13;;;;;;;;;;5039106;28;20172;-46
2021/10/19 04:35:50;;;;;;;9.25;3.42;;;;;;;;;;5040339;28;20407;-46
2021/10/19 04:38:16;;;;;;;7.45;3.40;;;;;;;;;;5040301;28;20211;-46
2021/10/19 04:40:42;;;;;;;10.30;4.30;;;;;;;;;;5040285;28;20172;-48
2021/10/19 04:43:08;;;;;;;5.95;3.22;;;;;;;;;;5039931;28;20199;-46
2021/10/19 04:45:34;;;;;;;6.35;3.38;;;;;;;;;;5040113;28;20164;-47
2021/10/19 04:48:03;;;;;;;8.43;3.25;;;;;;;;;;5040167;28;20271;-47
2021/10/19 04:50:30;;;;;;;8.25;3.25;;;;;;;;;;5039546;28;20187;-47
2021/10/19 04:52:56;;;;;;;5.40;3.35;;;;;;;;;;5032136;28;20274;-47
2021/10/19 04:55:22;;;;;;;9.88;4.07;;;;;;;;;;5029140;28;20453;-46
2021/10/19 04:57:49;;;;;;;8.65;3.85;;;;;;;;;;5018035;28;20169;-46
2021/10/19 05:00:15;;;;;;;9.30;3.42;;;;;;;;;;5024475;28;20532;-47
2021/10/19 05:02:45;;;;;;;8.55;3.25;;;;;;;;;;5035454;28;20570;-46
2021/10/19 05:05:11;;;;;;;6.03;2.90;;;;;;;;;;5034556;28;20212;-46
2021/10/19 05:07:37;;;;;;;9.00;3.65;;;;;;;;;;5018569;28;20267;-46
2021/10/19 05:10:03;;;;;;;7.80;3.72;;;;;;;;;;5022715;28;20322;-46
2021/10/19 05:12:29;;;;;;;8.32;3.58;;;;;;;;;;5022822;28;20195;-46
2021/10/19 05:14:57;;;;;;;9.43;3.80;;;;;;;;;;5016793;28;20177;-46
2021/10/19 05:17:23;;;;;;;7.07;3.60;;;;;;;;;;5017713;28;20172;-47
2021/10/19 05:19:49;;;;;;;10.68;3.60;;;;;;;;;;5020795;28;20691;-46
2021/10/19 05:22:15;;;;;;;8.70;3.78;;;;;;;;;;5036791;28;20483;-47
2021/10/19 05:24:41;;;;;;;5.40;3.47;;;;;;;;;;5031618;28;20191;-46
2021/10/19 05:27:07;;;;;;;6.78;3.38;;;;;;;;;;5027825;28;20257;-46
2021/10/19 05:29:33;;;;;;;6.60;3.22;;;;;;;;;;5031726;28;20172;-47
2021/10/19 05:31:59;;;;;;;5.68;3.30;;;;;;;;;;5017357;28;20180;-46
2021/10/19 05:34:25;;;;;;;4.43;3.03;;;;;;;;;;5017903;28;20259;-46
2021/10/19 05:36:51;;;;;;;6.18;3.63;;;;;;;;;;5036517;28;20187;-46
2021/10/19 05:39:18;;;;;;;5.60;3.10;;;;;;;;;;5034578;28;20575;-47
2021/10/19 05:41:45;;;;;;;6.75;3.55;;;;;;;;;;5034316;28;20207;-46
2021/10/19 05:44:11;;;;;;;4.55;3.10;;;;;;;;;;5035744;28;20194;-46
2021/10/19 05:46:37;;;;;;;5.57;3.08;;;;;;;;;;5024962;28;20483;-46
2021/10/19 05:49:03;;;;;;;6.05;3.30;;;;;;;;;;5035393;28;20179;-47
2021/10/19 05:51:29;;;;;;;5.80;3.05;;;;;;;;;;5030096;28;20579;-46
2021/10/19 05:53:55;;;;;;;5.10;3.33;;;;;;;;;;5019749;28;20226;-46
2021/10/19 05:56:21;;;;;;;5.88;3.28;;;;;;;;;;5028153;28;20180;-46
2021/10/19 05:58:47;;;;;;;6.07;3.10;;;;;;;;;;5034828;28;20209;-47
2021/10/19 06:01:13;;;;;;;7.63;3.40;;;;;;;;;;5033570;28;20199;-46
2021/10/19 06:03:39;;;;;;;4.85;3.25;;;;;;;;;;5018033;28;20189;-46
2021/10/19 06:06:10;;;;;;;3.72;2.92;;;;;;;;;;5019394;28;20198;-46
2021/10/19 06:08:36;;;;;;;3.55;2.80;;;;;;;;;;5036552;28;20206;-46
2021/10/19 06:11:02;;;;;;;5.85;3.03;;;;;;;;;;5020490;28;20195;-46
2021/10/19 06:13:28;;;;;;;4.10;3.15;;;;;;;;;;5015911;28;20184;-47
2021/10/19 06:15:55;;;;;;;4.38;2.83;;;;;;;;;;5017803;28;20563;-46
2021/10/19 06:18:21;;;;;;;4.07;3.00;;;;;;;;;;5016408;28;20180;-47
2021/10/19 06:20:49;;;;;;;6.47;3.10;;;;;;;;;;5016361;28;20572;-46
2021/10/19 06:23:15;;;;;;;4.25;3.15;;;;;;;;;;5024776;28;20204;-46
2021/10/19 06:25:41;;;;;;;4.88;2.97;;;;;;;;;;5015820;28;20193;-47
2021/10/19 06:28:07;;;;;;;5.10;3.22;;;;;;;;;;5035558;28;20191;-47
2021/10/19 06:30:34;;;;;;;4.30;3.30;;;;;;;;;;5032859;28;20267;-46
2021/10/19 06:33:00;;;;;;;6.65;3.22;;;;;;;;;;5034738;28;20180;-46
2021/10/19 06:35:26;;;;;;;5.78;3.60;;;;;;;;;;5029786;28;20191;-46
2021/10/19 06:37:52;;;;;;;4.13;3.20;;;;;;;;;;5033278;28;20184;-46
2021/10/19 06:40:18;;;;;;;4.53;3.05;;;;;;;;;;5035415;28;20225;-46
2021/10/19 06:42:45;;;;;;;4.75;3.08;;;;;;;;;;5034836;28;20204;-46
2021/10/19 06:45:11;;;;;;;5.50;3.15;;;;;;;;;;5035515;28;20167;-46
2021/10/19 06:47:37;;;;;;;6.28;3.00;;;;;;;;;;5031570;28;20262;-46
2021/10/19 06:50:04;;;;;;;4.45;2.97;;;;;;;;;;5034278;28;20251;-46
2021/10/19 06:52:30;;;;;;;4.13;3.08;;;;;;;;;;5016139;28;20176;-46
2021/10/19 06:54:57;;;;;;;4.78;3.30;;;;;;;;;;5026151;28;20271;-47
2021/10/19 06:57:23;;;;;;;5.53;3.33;;;;;;;;;;5034819;28;20218;-47
2021/10/19 06:59:49;;;;;;;6.10;3.25;;;;;;;;;;5027888;28;20519;-46
2021/10/19 07:02:15;;;;;;;7.63;3.10;;;;;;;;;;5033170;28;20216;-47
2021/10/19 07:04:41;;;;;;;4.10;3.20;;;;;;;;;;5023011;28;20214;-47
2021/10/19 07:07:08;;;;;;;4.28;3.22;;;;;;;;;;5022920;28;20445;-46
2021/10/19 07:09:34;;;;;;;4.43;2.95;;;;;;;;;;5015341;28;20503;-47
2021/10/19 07:12:01;;;;;;;3.80;3.20;;;;;;;;;;5025875;28;20267;-46
2021/10/19 07:14:27;;;;;;;4.45;3.20;;;;;;;;;;5034700;28;20199;-46
2021/10/19 07:16:54;;;;;;;3.78;3.08;;;;;;;;;;5032959;28;20564;-46
2021/10/19 07:19:20;;;;;;;3.63;3.10;;;;;;;;;;5035138;28;20172;-48
2021/10/19 07:21:46;;;;;;;3.90;2.92;;;;;;;;;;5024413;28;20274;-47
2021/10/19 07:24:12;;;;;;;3.40;2.42;;;;;;;;;;5029874;28;20172;-47
2021/10/19 07:26:38;;;;;;;3.65;3.10;;;;;;;;;;5033247;28;20258;-47
2021/10/19 07:29:04;;;;;;;3.72;3.00;;;;;;;;;;5034322;28;20261;-46
2021/10/19 07:31:31;;;;;;;3.53;2.88;;;;;;;;;;5034945;28;20547;-46
2021/10/19 07:33:57;;;;;;;3.08;2.78;;;;;;;;;;5034409;28;20172;-47
2021/10/19 07:36:23;;;;;;;3.45;2.80;;;;;;;;;;5033065;28;20214;-46
2021/10/19 07:38:50;;;;;;;3.40;3.10;;;;;;;;;;5034135;28;20215;-47
2021/10/19 07:41:16;;;;;;;4.32;2.85;;;;;;;;;;5034738;28;20168;-47
2021/10/19 07:43:42;;;;;;;3.50;3.20;;;;;;;;;;5034301;28;20547;-46
2021/10/19 07:46:08;;;;;;;2.97;2.63;;;;;;;;;;5034450;28;20191;-46
2021/10/19 07:48:34;;;;;;;4.32;2.88;;;;;;;;;;5029836;28;20534;-46
2021/10/19 07:51:00;;;;;;;4.05;2.65;;;;;;;;;;5026119;28;20495;-47
2021/10/19 07:53:26;;;;;;;4.75;2.90;;;;;;;;;;5032779;28;20188;-46
2021/10/19 07:55:52;;;;;;;3.47;2.72;;;;;;;;;;5020618;28;20177;-47
2021/10/19 07:58:18;;;;;;;3.30;2.97;;;;;;;;;;5014864;28;20187;-46
2021/10/19 08:00:44;;;;;;;3.92;2.95;;;;;;;;;;5017622;28;20199;-47
2021/10/19 08:03:10;;;;;;;3.05;2.65;;;;;;;;;;5033947;28;20231;-46
2021/10/19 08:05:37;;;;;;;3.08;2.78;;;;;;;;;;5033671;28;20176;-46
2021/10/19 08:08:06;;;;;;;3.20;2.90;;;;;;;;;;5030202;28;20700;-46
2021/10/19 08:10:32;;;;;;;3.08;2.60;;;;;;;;;;5022423;28;20278;-47
2021/10/19 08:12:58;;;;;;;3.15;2.75;;;;;;;;;;5030604;28;20262;-47
2021/10/19 08:15:24;;;;;;;2.85;2.50;;;;;;;;;;5027575;28;20245;-46
2021/10/19 08:17:50;;;;;;;3.40;2.63;;;;;;;;;;5031846;28;20217;-47
2021/10/19 08:20:16;;;;;;;3.40;2.80;;;;;;;;;;5038225;28;20174;-46
2021/10/19 08:22:43;;;;;;;3.03;2.50;;;;;;;;;;5038080;28;20230;-46
2021/10/19 08:25:09;;;;;;;2.95;2.53;;;;;;;;;;5037836;28;20188;-47
2021/10/19 08:27:36;;;;;;;2.42;2.22;;;;;;;;;;5038361;28;20541;-47
2021/10/19 08:30:03;;;;;;;2.88;2.42;;;;;;;;;;5038354;28;20168;-47
2021/10/19 08:32:29;;;;;;;2.95;2.67;;;;;;;;;;5038194;28;20168;-46
2021/10/19 08:34:55;;;;;;;2.83;2.45;;;;;;;;;;5037422;28;20611;-46
2021/10/19 08:37:21;;;;;;;3.03;2.35;;;;;;;;;;5036969;28;20180;-48
2021/10/19 08:39:47;;;;;;;2.97;2.65;;;;;;;;;;5020136;28;20575;-46
2021/10/19 08:42:14;;;;;;;2.88;2.60;;;;;;;;;;5017922;28;20200;-47
2021/10/19 08:44:41;;;;;;;2.53;2.33;;;;;;;;;;5017681;28;20168;-47
2021/10/19 08:47:07;;;;;;;2.92;2.38;;;;;;;;;;5030021;28;20741;-46
2021/10/19 08:49:33;;;;;;;2.35;2.15;;;;;;;;;;5036887;28;20595;-46
2021/10/19 08:51:59;;;;;;;2.67;2.47;;;;;;;;;;5037912;28;20176;-47
2021/10/19 08:54:25;;;;;;;2.50;2.30;;;;;;;;;;5030743;28;20564;-46
2021/10/19 08:56:52;;;;;;;2.80;2.60;;;;;;;;;;5017898;28;20196;-47
2021/10/19 08:59:22;;;;;;;2.92;2.35;;;;;;;;;;5018128;28;20200;-46
2021/10/19 09:01:48;;;;;;;2.67;2.47;;;;;;;;;;5017401;28;20218;-46
2021/10/19 09:04:14;;;;;;;2.92;2.60;;;;;;;;;;5025074;28;20180;-48
2021/10/19 09:06:41;;;;;;;3.35;2.60;;;;;;;;;;5026059;28;20271;-47
2021/10/19 09:09:08;;;;;;;2.50;2.30;;;;;;;;;;5017771;28;20165;-46
2021/10/19 09:11:44;;;;;;;2.40;2.20;;;;;;;;;;5017794;28;20173;-47
2021/10/19 09:14:11;;;;;;;2.72;2.45;;;;;;;;;;5017122;28;20168;-47
2021/10/19 09:16:37;;;;;;;3.42;2.20;;;;;;;;;;5017293;28;20169;-46
2021/10/19 09:19:03;;;;;;;2.15;1.95;;;;;;;;;;5030671;28;20199;-47
2021/10/19 09:21:30;;;;;;;2.58;2.38;;;;;;;;;;5032929;28;20475;-50
2021/10/19 09:24:13;;;;;;;2.90;2.42;;;;;;;;;;5036169;28;20452;-47
2021/10/19 09:26:48;;;;;;;2.50;2.28;;;;;;;;;;5028708;28;20227;-47
2021/10/19 09:29:14;;;;;;;2.40;2.20;;;;;;;;;;5022388;28;20207;-47
2021/10/19 09:31:40;;;;;;;2.45;2.25;;;;;;;;;;5019110;28;20188;-47
2021/10/19 09:34:06;;;;;;;2.78;2.25;;;;;;;;;;5036440;28;20258;-47
2021/10/19 09:36:35;;;;;;;2.20;2.00;;;;;;;;;;5036239;28;20180;-47
2021/10/19 09:39:01;;;;;;;2.25;2.05;;;;;;;;;;5019950;28;20351;-47
2021/10/19 09:41:27;;;;;;;2.70;2.50;;;;;;;;;;5022576;28;20578;-47
2021/10/19 09:43:54;;;;;;;2.47;2.28;;;;;;;;;;5027403;28;20872;-47
2021/10/19 09:46:23;;;;;;;2.33;2.13;;;;;;;;;;5017132;28;20188;-47
2021/10/19 09:48:50;;;;;;;2.95;2.42;;;;;;;;;;5034289;28;20168;-47
2021/10/19 09:51:16;;;;;;;2.40;2.20;;;;;;;;;;5026710;28;20560;-47
2021/10/19 09:53:43;;;;;;;2.40;2.20;;;;;;;;;;5016249;28;20435;-47
2021/10/19 09:56:09;;;;;;;2.70;2.50;;;;;;;;;;5032080;28;20263;-47
2021/10/19 09:58:36;;;;;;;3.28;2.40;;;;;;;;;;5029474;28;20190;-47
2021/10/19 10:01:03;;;;;;;2.33;2.13;;;;;;;;;;5036335;28;20278;-47
2021/10/19 10:03:30;;;;;;;2.50;2.30;;;;;;;;;;5028575;28;20204;-47
2021/10/19 10:05:56;;;;;;;2.42;2.20;;;;;;;;;;5017029;28;20220;-47
2021/10/19 10:08:24;;;;;;;2.10;2.00;;;;;;;;;;5016708;28;20172;-47
2021/10/19 10:10:51;;;;;;;3.25;2.25;;;;;;;;;;5016756;28;20180;-46
2021/10/19 10:13:17;;;;;;;2.50;2.30;;;;;;;;;;5035006;28;20457;-47
2021/10/19 10:15:43;;;;;;;3.22;2.38;;;;;;;;;;5035637;28;20187;-46
2021/10/19 10:18:11;;;;;;;2.40;2.20;;;;;;;;;;5019581;28;20501;-47
2021/10/19 10:20:37;;;;;;;2.30;2.10;;;;;;;;;;5016580;28;20176;-47
2021/10/19 10:23:22;;;;;;;2.60;2.40;;;;;;;;;;5030184;28;20204;-46
2021/10/19 10:25:49;;;;;;;2.53;2.30;;;;;;;;;;5029606;28;20478;-46
2021/10/19 10:28:15;;;;;;;3.83;2.30;;;;;;;;;;5016238;28;20212;-47
2021/10/19 10:30:41;;;;;;;2.20;2.00;;;;;;;;;;5015359;28;20222;-47
2021/10/19 10:33:07;;;;;;;3.28;2.40;;;;;;;;;;5035382;28;20219;-47
2021/10/19 10:35:33;;;;;;;3.33;2.60;;;;;;;;;;5035867;28;20490;-47
2021/10/19 10:38:03;;;;;;;2.22;2.13;;;;;;;;;;5017297;28;20239;-46
2021/10/19 10:40:33;;;;;;;2.20;2.00;;;;;;;;;;5021659;28;20180;-47
2021/10/19 10:43:00;;;;;;;2.15;1.95;;;;;;;;;;5015589;28;20890;-47
2021/10/19 10:45:31;;;;;;;2.35;2.15;;;;;;;;;;5023956;28;20261;-47
2021/10/19 10:47:59;;;;;;;2.08;1.98;;;;;;;;;;5034063;28;20196;-47
2021/10/19 10:50:25;;;;;;;2.42;2.22;;;;;;;;;;5035673;28;20164;-47
2021/10/19 10:53:04;;;;;;;2.40;2.20;;;;;;;;;;5017635;28;20195;-47
2021/10/19 10:55:37;;;;;;;2.17;1.90;;;;;;;;;;5019794;28;20184;-47
2021/10/19 10:58:04;;;;;;;2.30;2.10;;;;;;;;;;5015856;28;20206;-47
2021/10/19 11:00:30;;;;;;;2.15;1.95;;;;;;;;;;5015640;28;20552;-47
2021/10/19 11:03:08;;;;;;;2.35;2.03;;;;;;;;;;5017749;28;20223;-47
2021/10/19 11:05:36;;;;;;;2.55;2.35;;;;;;;;;;5024593;28;20184;-47
2021/10/19 11:08:02;;;;;;;2.40;2.20;;;;;;;;;;5033265;28;20187;-47
2021/10/19 11:10:28;;;;;;;2.95;2.53;;;;;;;;;;5035015;28;20181;-47
2021/10/19 11:13:01;;;;;;;2.22;2.03;;;;;;;;;;5018768;28;20192;-47
2021/10/19 11:15:28;;;;;;;2.13;1.98;;;;;;;;;;5034649;28;20178;-47
2021/10/19 11:17:56;;;;;;;2.10;1.90;;;;;;;;;;5016261;28;20203;-47
2021/10/19 11:20:22;;;;;;;1.98;1.88;;;;;;;;;;5015262;28;20259;-46
2021/10/19 11:22:49;;;;;;;2.50;2.30;;;;;;;;;;5024490;28;20211;-46
2021/10/19 11:25:15;;;;;;;2.30;2.08;;;;;;;;;;5034731;28;20187;-47
2021/10/19 11:27:42;;;;;;;2.08;1.98;;;;;;;;;;5034873;28;20168;-47
2021/10/19 11:30:08;;;;;;;2.00;1.80;;;;;;;;;;5035043;28;20194;-47
2021/10/19 11:32:35;;;;;;;2.08;1.98;;;;;;;;;;5034701;28;20182;-48
2021/10/19 11:35:01;;;;;;;2.00;1.88;;;;;;;;;;5034376;28;20251;-48
2021/10/19 11:37:28;;;;;;;2.00;1.90;;;;;;;;;;5017304;28;20275;-46
2021/10/19 11:40:10;;;;;;;2.00;1.90;;;;;;;;;;5015146;28;20211;-47
2021/10/19 11:42:44;;;;;;;2.13;1.92;;;;;;;;;;5014695;28;20224;-47
2021/10/19 11:45:10;;;;;;;2.47;1.98;;;;;;;;;;5014699;28;20167;-47
2021/10/19 11:47:44;;;;;;;2.13;1.92;;;;;;;;;;5030916;28;20191;-47
2021/10/19 11:50:11;;;;;;;2.08;1.90;;;;;;;;;;5034062;28;20467;-47
2021/10/19 11:52:37;;;;;;;2.33;2.00;;;;;;;;;;5034306;28;20570;-46
2021/10/19 11:55:03;;;;;;;2.90;2.10;;;;;;;;;;5022421;28;20194;-47
2021/10/19 11:57:35;;;;;;;2.50;2.30;;;;;;;;;;5014844;28;20631;-47
2021/10/19 12:00:04;;;;;;;2.40;2.20;;;;;;;;;;5014896;28;20168;-46
2021/10/19 12:02:31;;;;;;;1.92;1.83;;;;;;;;;;5014727;28;20243;-47
2021/10/19 12:05:04;;;;;;;2.17;1.98;;;;;;;;;;5026004;28;20211;-46
2021/10/19 12:07:31;;;;;;;2.30;2.03;;;;;;;;;;5034372;28;20210;-47
2021/10/19 12:10:07;;;;;;;2.25;2.05;;;;;;;;;;5034396;28;20597;-47
2021/10/19 12:12:33;;;;;;;2.17;2.08;;;;;;;;;;5033771;28;20559;-47
2021/10/19 12:14:59;;;;;;;2.20;2.00;;;;;;;;;;5033888;28;20172;-47
2021/10/19 12:17:25;;;;;;;2.30;2.10;;;;;;;;;;5034520;28;20539;-46
2021/10/19 12:19:55;;;;;;;2.22;2.10;;;;;;;;;;5015237;28;20502;-47
2021/10/19 12:22:21;;;;;;;2.10;2.00;;;;;;;;;;5014520;28;20263;-47
2021/10/19 12:24:47;;;;;;;2.22;2.08;;;;;;;;;;5013931;28;20821;-46
2021/10/19 12:27:19;;;;;;;2.13;1.85;;;;;;;;;;5014567;28;20212;-47
2021/10/19 12:29:48;;;;;;;2.10;2.00;;;;;;;;;;5014592;28;20184;-47
2021/10/19 12:32:14;;;;;;;2.10;2.00;;;;;;;;;;5019131;28;20287;-47
2021/10/19 12:34:40;;;;;;;2.20;2.00;;;;;;;;;;5033861;28;20544;-47
2021/10/19 12:37:07;;;;;;;2.00;1.80;;;;;;;;;;5034303;28;20237;-47
2021/10/19 12:39:34;;;;;;;1.60;1.50;;;;;;;;;;5034327;28;20226;-47
2021/10/19 12:42:01;;;;;;;1.70;1.60;;;;;;;;;;5034075;28;20200;-46
2021/10/19 12:44:28;;;;;;;1.92;1.80;;;;;;;;;;5033594;28;20207;-47
2021/10/19 12:46:56;;;;;;;1.88;1.77;;;;;;;;;;5027906;28;20471;-47
2021/10/19 12:49:22;;;;;;;1.80;1.70;;;;;;;;;;5024728;28;20169;-48
2021/10/19 12:51:48;;;;;;;1.77;1.58;;;;;;;;;;5014243;28;20171;-47
2021/10/19 12:54:14;;;;;;;2.10;1.90;;;;;;;;;;5025724;28;20266;-47
2021/10/19 12:56:44;;;;;;;1.90;1.80;;;;;;;;;;5017863;28;20303;-46
2021/10/19 12:59:11;;;;;;;1.73;1.63;;;;;;;;;;5020128;28;20253;-46
2021/10/19 13:01:37;;;;;;;2.13;1.92;;;;;;;;;;5020920;28;20575;-47
2021/10/19 13:04:03;;;;;;;2.13;1.92;;;;;;;;;;5024576;28;20191;-47
2021/10/19 13:06:30;;;;;;;1.85;1.75;;;;;;;;;;5025111;28;20194;-47
2021/10/19 13:08:56;;;;;;;1.80;1.70;;;;;;;;;;5020689;28;20314;-46
2021/10/19 13:11:23;;;;;;;2.05;1.80;;;;;;;;;;5035282;28;20175;-47
2021/10/19 13:13:49;;;;;;;2.05;1.80;;;;;;;;;;5020067;28;20693;-48
2021/10/19 13:16:15;;;;;;;3.92;1.90;;;;;;;;;;5023996;28;20246;-46
2021/10/19 13:18:42;;;;;;;2.20;1.80;;;;;;;;;;5029939;28;20203;-47
2021/10/19 13:21:08;;;;;;;2.45;1.83;;;;;;;;;;5024973;28;20188;-46
2021/10/19 13:23:34;;;;;;;3.08;2.03;;;;;;;;;;5016938;28;20299;-46
2021/10/19 13:26:01;;;;;;;3.28;2.47;;;;;;;;;;5018026;28;20204;-47
2021/10/19 13:28:27;;;;;;;3.22;2.03;;;;;;;;;;5021459;28;20287;-47
2021/10/19 13:30:53;;;;;;;2.20;1.98;;;;;;;;;;5019462;28;20615;-46
2021/10/19 13:33:19;;;;;;;2.30;1.90;;;;;;;;;;5018605;28;20271;-47
2021/10/19 13:35:46;;;;;;;2.30;2.10;;;;;;;;;;5018347;28;20189;-46
2021/10/19 13:38:12;;;;;;;2.08;1.90;;;;;;;;;;5035433;28;20482;-47
2021/10/19 13:40:46;;;;;;;3.75;2.13;;;;;;;;;;5022157;28;20207;-47
2021/10/19 13:43:12;;;;;;;2.15;1.95;;;;;;;;;;5017577;28;20246;-47
2021/10/19 13:45:38;;;;;;;3.08;2.03;;;;;;;;;;5017043;28;20774;-47
2021/10/19 13:48:08;;;;;;;2.30;2.10;;;;;;;;;;5026782;28;20218;-47
2021/10/19 13:50:34;;;;;;;2.65;1.90;;;;;;;;;;5036142;28;20204;-47
2021/10/19 13:53:00;;;;;;;2.10;1.88;;;;;;;;;;5036134;28;20191;-47
2021/10/19 13:55:26;;;;;;;2.05;1.85;;;;;;;;;;5021504;28;20191;-47
2021/10/19 13:57:52;;;;;;;3.38;2.33;;;;;;;;;;5028511;28;20183;-47
2021/10/19 14:00:18;;;;;;;2.08;1.90;;;;;;;;;;5017948;28;20506;-47
2021/10/19 14:02:44;;;;;;;2.38;2.03;;;;;;;;;;5028642;28;20212;-46
2021/10/19 14:05:10;;;;;;;5.00;2.40;;;;;;;;;;5021689;28;20237;-47
2021/10/19 14:07:36;;;;;;;4.30;2.30;;;;;;;;;;5021265;28;20169;-47
2021/10/19 14:10:03;;;;;;;3.85;2.53;;;;;;;;;;5017428;28;20549;-47
2021/10/19 14:12:29;;;;;;;4.18;2.38;;;;;;;;;;5029852;28;20267;-46
2021/10/19 14:14:55;;;;;;;2.92;1.90;;;;;;;;;;5033535;28;20266;-46
2021/10/19 14:17:22;;;;;;;5.57;2.30;;;;;;;;;;5028771;28;20191;-47
2021/10/19 14:19:49;;;;;;;4.40;2.55;;;;;;;;;;5036286;28;20191;-47
2021/10/19 14:22:16;;;;;;;3.35;2.38;;;;;;;;;;5022918;28;20224;-46
2021/10/19 14:24:42;;;;;;;4.40;2.33;;;;;;;;;;5017910;28;20195;-47
2021/10/19 14:27:08;;;;;;;5.13;2.28;;;;;;;;;;5027757;28;20844;-46
2021/10/19 14:29:34;;;;;;;4.43;2.72;;;;;;;;;;5020027;28;20489;-46
2021/10/19 14:32:00;;;;;;;2.83;2.08;;;;;;;;;;5035853;28;20184;-47
2021/10/19 14:34:26;;;;;;;7.15;2.30;;;;;;;;;;5025465;28;20184;-47
2021/10/19 14:36:52;;;;;;;4.82;2.45;;;;;;;;;;5024525;28;20191;-46
2021/10/19 14:39:22;;;;;;;4.60;2.47;;;;;;;;;;5015846;28;20173;-47